sensor_id;sensor_type;location;lat;lon;timestamp;P1;durP1;ratioP1;P2;durP2;ratioP2
76786;SDS011;65739;51.482;5.702;2023-07-02T00:00:07;15.32;;;5.88;;
76786;SDS011;65739;51.482;5.702;2023-07-02T00:02:33;12.20;;;5.93;;
76786;SDS011;65739;51.482;5.702;2023-07-02T00:04:59;11.75;;;5.60;;
76786;SDS011;65739;51.482;5.702;2023-07-02T00:07:24;16.50;;;6.15;;
76786;SDS011;65739;51.482;5.702;2023-07-02T00:09:53;14.13;;;6.07;;
76786;SDS011;65739;51.482;5.702;2023-07-02T00:12:19;14.38;;;5.55;;
76786;SDS011;65739;51.482;5.702;2023-07-02T00:14:45;14.73;;;5.82;;
76786;SDS011;65739;51.482;5.702;2023-07-02T00:17:10;16.73;;;6.13;;
76786;SDS011;65739;51.482;5.702;2023-07-02T00:19:37;14.48;;;5.68;;
76786;SDS011;65739;51.482;5.702;2023-07-02T00:22:06;14.05;;;5.95;;
76786;SDS011;65739;51.482;5.702;2023-07-02T00:24:33;13.43;;;6.22;;
76786;SDS011;65739;51.482;5.702;2023-07-02T00:26:58;13.80;;;5.80;;
76786;SDS011;65739;51.482;5.702;2023-07-02T00:29:24;14.93;;;6.45;;
76786;SDS011;65739;51.482;5.702;2023-07-02T00:31:49;13.50;;;5.60;;
76786;SDS011;65739;51.482;5.702;2023-07-02T00:34:15;14.85;;;6.72;;
76786;SDS011;65739;51.482;5.702;2023-07-02T00:36:40;14.35;;;6.25;;
76786;SDS011;65739;51.482;5.702;2023-07-02T00:39:06;15.35;;;6.53;;
76786;SDS011;65739;51.482;5.702;2023-07-02T00:41:32;15.32;;;7.10;;
76786;SDS011;65739;51.482;5.702;2023-07-02T00:43:57;15.07;;;6.97;;
76786;SDS011;65739;51.482;5.702;2023-07-02T00:46:23;15.43;;;7.35;;
76786;SDS011;65739;51.482;5.702;2023-07-02T00:48:51;17.55;;;6.97;;
76786;SDS011;65739;51.482;5.702;2023-07-02T00:51:18;19.48;;;8.02;;
76786;SDS011;65739;51.482;5.702;2023-07-02T00:53:50;18.40;;;7.78;;
76786;SDS011;65739;51.482;5.702;2023-07-02T00:56:17;25.63;;;7.78;;
76786;SDS011;65739;51.482;5.702;2023-07-02T00:58:44;18.38;;;8.25;;
76786;SDS011;65739;51.482;5.702;2023-07-02T01:03:57;16.77;;;8.20;;
76786;SDS011;65739;51.482;5.702;2023-07-02T01:06:30;17.02;;;7.95;;
76786;SDS011;65739;51.482;5.702;2023-07-02T01:08:58;17.65;;;8.02;;
76786;SDS011;65739;51.482;5.702;2023-07-02T01:11:33;17.98;;;7.97;;
76786;SDS011;65739;51.482;5.702;2023-07-02T01:14:11;18.83;;;8.90;;
76786;SDS011;65739;51.482;5.702;2023-07-02T01:16:41;21.90;;;8.98;;
76786;SDS011;65739;51.482;5.702;2023-07-02T01:19:13;20.63;;;8.60;;
76786;SDS011;65739;51.482;5.702;2023-07-02T01:21:58;22.50;;;9.88;;
76786;SDS011;65739;51.482;5.702;2023-07-02T01:24:25;18.38;;;9.10;;
76786;SDS011;65739;51.482;5.702;2023-07-02T01:26:51;23.13;;;10.27;;
76786;SDS011;65739;51.482;5.702;2023-07-02T01:29:17;21.10;;;9.05;;
76786;SDS011;65739;51.482;5.702;2023-07-02T01:31:44;20.50;;;9.73;;
76786;SDS011;65739;51.482;5.702;2023-07-02T01:34:10;21.00;;;9.45;;
76786;SDS011;65739;51.482;5.702;2023-07-02T01:36:36;25.13;;;10.98;;
76786;SDS011;65739;51.482;5.702;2023-07-02T01:39:02;21.02;;;10.27;;
76786;SDS011;65739;51.482;5.702;2023-07-02T01:41:28;22.77;;;11.45;;
76786;SDS011;65739;51.482;5.702;2023-07-02T01:43:54;20.23;;;10.52;;
76786;SDS011;65739;51.482;5.702;2023-07-02T01:46:20;23.30;;;11.00;;
76786;SDS011;65739;51.482;5.702;2023-07-02T01:48:46;27.33;;;10.70;;
76786;SDS011;65739;51.482;5.702;2023-07-02T01:51:11;26.05;;;11.35;;
76786;SDS011;65739;51.482;5.702;2023-07-02T01:53:38;28.80;;;11.90;;
76786;SDS011;65739;51.482;5.702;2023-07-02T01:56:04;28.02;;;11.90;;
76786;SDS011;65739;51.482;5.702;2023-07-02T01:58:29;25.63;;;11.77;;
76786;SDS011;65739;51.482;5.702;2023-07-02T02:00:55;26.23;;;11.93;;
76786;SDS011;65739;51.482;5.702;2023-07-02T02:03:21;27.00;;;12.23;;
76786;SDS011;65739;51.482;5.702;2023-07-02T02:05:47;26.80;;;11.50;;
76786;SDS011;65739;51.482;5.702;2023-07-02T02:08:12;26.58;;;12.23;;
76786;SDS011;65739;51.482;5.702;2023-07-02T02:10:38;30.77;;;12.70;;
76786;SDS011;65739;51.482;5.702;2023-07-02T02:13:04;28.73;;;12.30;;
76786;SDS011;65739;51.482;5.702;2023-07-02T02:15:30;28.58;;;12.32;;
76786;SDS011;65739;51.482;5.702;2023-07-02T02:17:55;32.22;;;13.27;;
76786;SDS011;65739;51.482;5.702;2023-07-02T02:20:21;35.05;;;12.98;;
76786;SDS011;65739;51.482;5.702;2023-07-02T02:22:46;28.85;;;13.20;;
76786;SDS011;65739;51.482;5.702;2023-07-02T02:25:12;32.45;;;13.98;;
76786;SDS011;65739;51.482;5.702;2023-07-02T02:27:37;37.28;;;13.77;;
76786;SDS011;65739;51.482;5.702;2023-07-02T02:30:03;28.73;;;12.82;;
76786;SDS011;65739;51.482;5.702;2023-07-02T02:32:29;29.48;;;13.25;;
76786;SDS011;65739;51.482;5.702;2023-07-02T02:34:55;30.85;;;13.50;;
76786;SDS011;65739;51.482;5.702;2023-07-02T02:37:20;34.38;;;13.65;;
76786;SDS011;65739;51.482;5.702;2023-07-02T02:39:47;31.83;;;13.13;;
76786;SDS011;65739;51.482;5.702;2023-07-02T02:42:13;26.73;;;12.57;;
76786;SDS011;65739;51.482;5.702;2023-07-02T02:44:38;33.33;;;13.98;;
76786;SDS011;65739;51.482;5.702;2023-07-02T02:47:04;30.23;;;12.75;;
76786;SDS011;65739;51.482;5.702;2023-07-02T02:49:30;33.33;;;13.10;;
76786;SDS011;65739;51.482;5.702;2023-07-02T02:51:56;30.65;;;13.60;;
76786;SDS011;65739;51.482;5.702;2023-07-02T02:54:21;29.15;;;13.90;;
76786;SDS011;65739;51.482;5.702;2023-07-02T02:56:47;28.88;;;13.07;;
76786;SDS011;65739;51.482;5.702;2023-07-02T02:59:12;31.80;;;13.93;;
76786;SDS011;65739;51.482;5.702;2023-07-02T03:01:38;32.22;;;14.52;;
76786;SDS011;65739;51.482;5.702;2023-07-02T03:04:04;32.90;;;13.68;;
76786;SDS011;65739;51.482;5.702;2023-07-02T03:06:30;26.38;;;12.90;;
76786;SDS011;65739;51.482;5.702;2023-07-02T03:08:56;32.55;;;13.77;;
76786;SDS011;65739;51.482;5.702;2023-07-02T03:11:22;35.03;;;14.52;;
76786;SDS011;65739;51.482;5.702;2023-07-02T03:13:47;34.28;;;13.82;;
76786;SDS011;65739;51.482;5.702;2023-07-02T03:16:13;28.90;;;13.55;;
76786;SDS011;65739;51.482;5.702;2023-07-02T03:18:39;34.40;;;13.90;;
76786;SDS011;65739;51.482;5.702;2023-07-02T03:21:04;31.23;;;13.52;;
76786;SDS011;65739;51.482;5.702;2023-07-02T03:23:30;34.35;;;13.75;;
76786;SDS011;65739;51.482;5.702;2023-07-02T03:25:55;29.83;;;13.25;;
76786;SDS011;65739;51.482;5.702;2023-07-02T03:28:21;34.10;;;13.48;;
76786;SDS011;65739;51.482;5.702;2023-07-02T03:30:46;33.13;;;14.32;;
76786;SDS011;65739;51.482;5.702;2023-07-02T03:33:12;31.38;;;14.25;;
76786;SDS011;65739;51.482;5.702;2023-07-02T03:35:37;35.80;;;14.68;;
76786;SDS011;65739;51.482;5.702;2023-07-02T03:38:04;31.67;;;13.90;;
76786;SDS011;65739;51.482;5.702;2023-07-02T03:40:31;33.28;;;13.70;;
76786;SDS011;65739;51.482;5.702;2023-07-02T03:42:56;32.28;;;12.90;;
76786;SDS011;65739;51.482;5.702;2023-07-02T03:45:22;34.05;;;14.32;;
76786;SDS011;65739;51.482;5.702;2023-07-02T03:47:47;30.90;;;14.40;;
76786;SDS011;65739;51.482;5.702;2023-07-02T03:50:13;34.28;;;14.07;;
76786;SDS011;65739;51.482;5.702;2023-07-02T03:52:38;29.00;;;13.57;;
76786;SDS011;65739;51.482;5.702;2023-07-02T03:55:04;28.90;;;12.43;;
76786;SDS011;65739;51.482;5.702;2023-07-02T03:57:30;27.40;;;12.27;;
76786;SDS011;65739;51.482;5.702;2023-07-02T03:59:55;28.48;;;12.25;;
76786;SDS011;65739;51.482;5.702;2023-07-02T04:02:21;29.60;;;12.60;;
76786;SDS011;65739;51.482;5.702;2023-07-02T04:04:47;29.75;;;12.95;;
76786;SDS011;65739;51.482;5.702;2023-07-02T04:07:12;25.73;;;12.00;;
76786;SDS011;65739;51.482;5.702;2023-07-02T04:09:38;32.38;;;11.43;;
76786;SDS011;65739;51.482;5.702;2023-07-02T04:12:03;29.00;;;11.80;;
76786;SDS011;65739;51.482;5.702;2023-07-02T04:14:29;27.58;;;11.95;;
76786;SDS011;65739;51.482;5.702;2023-07-02T04:16:55;26.13;;;11.85;;
76786;SDS011;65739;51.482;5.702;2023-07-02T04:19:20;24.23;;;11.23;;
76786;SDS011;65739;51.482;5.702;2023-07-02T04:21:46;25.77;;;12.15;;
76786;SDS011;65739;51.482;5.702;2023-07-02T04:24:12;26.30;;;10.98;;
76786;SDS011;65739;51.482;5.702;2023-07-02T04:26:37;25.10;;;10.95;;
76786;SDS011;65739;51.482;5.702;2023-07-02T04:29:03;25.38;;;10.60;;
76786;SDS011;65739;51.482;5.702;2023-07-02T04:31:28;24.17;;;9.88;;
76786;SDS011;65739;51.482;5.702;2023-07-02T04:33:54;25.05;;;10.63;;
76786;SDS011;65739;51.482;5.702;2023-07-02T04:36:19;22.70;;;10.60;;
76786;SDS011;65739;51.482;5.702;2023-07-02T04:38:45;21.50;;;9.63;;
76786;SDS011;65739;51.482;5.702;2023-07-02T04:41:11;23.00;;;10.05;;
76786;SDS011;65739;51.482;5.702;2023-07-02T04:43:36;24.92;;;9.30;;
76786;SDS011;65739;51.482;5.702;2023-07-02T04:46:02;20.65;;;9.35;;
76786;SDS011;65739;51.482;5.702;2023-07-02T04:48:28;19.13;;;8.70;;
76786;SDS011;65739;51.482;5.702;2023-07-02T04:50:53;21.13;;;9.95;;
76786;SDS011;65739;51.482;5.702;2023-07-02T04:53:19;21.20;;;8.80;;
76786;SDS011;65739;51.482;5.702;2023-07-02T04:55:44;20.75;;;9.00;;
76786;SDS011;65739;51.482;5.702;2023-07-02T04:58:10;21.25;;;9.65;;
76786;SDS011;65739;51.482;5.702;2023-07-02T05:00:36;23.70;;;9.57;;
76786;SDS011;65739;51.482;5.702;2023-07-02T05:03:01;25.00;;;8.98;;
76786;SDS011;65739;51.482;5.702;2023-07-02T05:05:27;29.33;;;10.48;;
76786;SDS011;65739;51.482;5.702;2023-07-02T05:07:53;24.02;;;9.43;;
76786;SDS011;65739;51.482;5.702;2023-07-02T05:10:19;23.67;;;9.75;;
76786;SDS011;65739;51.482;5.702;2023-07-02T05:12:45;18.95;;;8.88;;
76786;SDS011;65739;51.482;5.702;2023-07-02T05:15:10;23.02;;;9.25;;
76786;SDS011;65739;51.482;5.702;2023-07-02T05:17:37;20.67;;;9.43;;
76786;SDS011;65739;51.482;5.702;2023-07-02T05:20:03;21.35;;;9.75;;
76786;SDS011;65739;51.482;5.702;2023-07-02T05:22:29;19.08;;;9.55;;
76786;SDS011;65739;51.482;5.702;2023-07-02T05:24:55;21.15;;;8.98;;
76786;SDS011;65739;51.482;5.702;2023-07-02T05:27:21;23.05;;;8.82;;
76786;SDS011;65739;51.482;5.702;2023-07-02T05:29:46;24.52;;;9.00;;
76786;SDS011;65739;51.482;5.702;2023-07-02T05:32:12;20.73;;;8.90;;
76786;SDS011;65739;51.482;5.702;2023-07-02T05:34:37;26.33;;;8.80;;
76786;SDS011;65739;51.482;5.702;2023-07-02T05:37:03;21.77;;;8.65;;
76786;SDS011;65739;51.482;5.702;2023-07-02T05:39:28;21.98;;;8.95;;
76786;SDS011;65739;51.482;5.702;2023-07-02T05:41:55;22.45;;;9.20;;
76786;SDS011;65739;51.482;5.702;2023-07-02T05:44:21;24.40;;;8.55;;
76786;SDS011;65739;51.482;5.702;2023-07-02T05:46:47;20.30;;;8.43;;
76786;SDS011;65739;51.482;5.702;2023-07-02T05:49:12;23.15;;;8.50;;
76786;SDS011;65739;51.482;5.702;2023-07-02T05:51:38;22.35;;;7.82;;
76786;SDS011;65739;51.482;5.702;2023-07-02T05:54:03;28.88;;;8.40;;
76786;SDS011;65739;51.482;5.702;2023-07-02T05:56:29;20.23;;;8.02;;
76786;SDS011;65739;51.482;5.702;2023-07-02T05:58:54;21.65;;;7.85;;
76786;SDS011;65739;51.482;5.702;2023-07-02T06:01:20;26.50;;;7.32;;
76786;SDS011;65739;51.482;5.702;2023-07-02T06:03:45;21.42;;;7.40;;
76786;SDS011;65739;51.482;5.702;2023-07-02T06:06:13;23.90;;;7.72;;
76786;SDS011;65739;51.482;5.702;2023-07-02T06:08:39;19.88;;;6.97;;
76786;SDS011;65739;51.482;5.702;2023-07-02T06:11:04;23.70;;;7.97;;
76786;SDS011;65739;51.482;5.702;2023-07-02T06:13:30;21.17;;;7.00;;
76786;SDS011;65739;51.482;5.702;2023-07-02T06:15:55;22.60;;;7.95;;
76786;SDS011;65739;51.482;5.702;2023-07-02T06:18:22;23.02;;;7.35;;
76786;SDS011;65739;51.482;5.702;2023-07-02T06:20:47;19.77;;;8.13;;
76786;SDS011;65739;51.482;5.702;2023-07-02T06:23:13;24.17;;;6.97;;
76786;SDS011;65739;51.482;5.702;2023-07-02T06:25:38;18.20;;;6.95;;
76786;SDS011;65739;51.482;5.702;2023-07-02T06:28:04;20.67;;;7.05;;
76786;SDS011;65739;51.482;5.702;2023-07-02T06:30:29;20.90;;;6.80;;
76786;SDS011;65739;51.482;5.702;2023-07-02T06:32:55;18.05;;;6.90;;
76786;SDS011;65739;51.482;5.702;2023-07-02T06:35:20;20.73;;;7.20;;
76786;SDS011;65739;51.482;5.702;2023-07-02T06:37:46;16.45;;;6.28;;
76786;SDS011;65739;51.482;5.702;2023-07-02T06:40:12;17.42;;;6.80;;
76786;SDS011;65739;51.482;5.702;2023-07-02T06:42:38;19.98;;;7.40;;
76786;SDS011;65739;51.482;5.702;2023-07-02T06:45:04;18.38;;;6.43;;
76786;SDS011;65739;51.482;5.702;2023-07-02T06:47:30;18.75;;;6.40;;
76786;SDS011;65739;51.482;5.702;2023-07-02T06:49:55;15.85;;;6.25;;
76786;SDS011;65739;51.482;5.702;2023-07-02T06:52:21;18.63;;;6.07;;
76786;SDS011;65739;51.482;5.702;2023-07-02T06:54:46;12.90;;;5.88;;
76786;SDS011;65739;51.482;5.702;2023-07-02T06:57:15;16.83;;;5.78;;
76786;SDS011;65739;51.482;5.702;2023-07-02T06:59:40;17.13;;;5.57;;
76786;SDS011;65739;51.482;5.702;2023-07-02T07:02:06;19.02;;;6.15;;
76786;SDS011;65739;51.482;5.702;2023-07-02T07:04:32;15.57;;;6.20;;
76786;SDS011;65739;51.482;5.702;2023-07-02T07:06:59;15.90;;;6.03;;
76786;SDS011;65739;51.482;5.702;2023-07-02T07:09:25;17.17;;;6.50;;
76786;SDS011;65739;51.482;5.702;2023-07-02T07:11:50;14.80;;;5.80;;
76786;SDS011;65739;51.482;5.702;2023-07-02T07:14:16;16.85;;;6.32;;
76786;SDS011;65739;51.482;5.702;2023-07-02T07:16:41;15.48;;;6.20;;
76786;SDS011;65739;51.482;5.702;2023-07-02T07:19:07;17.25;;;6.45;;
76786;SDS011;65739;51.482;5.702;2023-07-02T07:21:33;15.88;;;5.47;;
76786;SDS011;65739;51.482;5.702;2023-07-02T07:23:59;16.25;;;5.80;;
76786;SDS011;65739;51.482;5.702;2023-07-02T07:26:25;17.77;;;5.57;;
76786;SDS011;65739;51.482;5.702;2023-07-02T07:28:50;17.33;;;6.55;;
76786;SDS011;65739;51.482;5.702;2023-07-02T07:31:16;17.13;;;6.00;;
76786;SDS011;65739;51.482;5.702;2023-07-02T07:33:41;15.70;;;5.40;;
76786;SDS011;65739;51.482;5.702;2023-07-02T07:36:07;17.48;;;5.03;;
76786;SDS011;65739;51.482;5.702;2023-07-02T07:38:32;12.93;;;5.45;;
76786;SDS011;65739;51.482;5.702;2023-07-02T07:40:58;12.85;;;5.03;;
76786;SDS011;65739;51.482;5.702;2023-07-02T07:43:23;13.63;;;5.22;;
76786;SDS011;65739;51.482;5.702;2023-07-02T07:45:49;15.57;;;5.10;;
76786;SDS011;65739;51.482;5.702;2023-07-02T07:48:14;15.73;;;5.47;;
76786;SDS011;65739;51.482;5.702;2023-07-02T07:50:40;15.77;;;5.20;;
76786;SDS011;65739;51.482;5.702;2023-07-02T07:53:06;14.43;;;5.43;;
76786;SDS011;65739;51.482;5.702;2023-07-02T07:55:31;8.77;;;4.88;;
76786;SDS011;65739;51.482;5.702;2023-07-02T07:57:57;8.60;;;4.55;;
76786;SDS011;65739;51.482;5.702;2023-07-02T08:00:22;11.95;;;5.07;;
76786;SDS011;65739;51.482;5.702;2023-07-02T08:02:49;12.60;;;4.85;;
76786;SDS011;65739;51.482;5.702;2023-07-02T08:05:17;14.48;;;5.38;;
76786;SDS011;65739;51.482;5.702;2023-07-02T08:07:42;10.30;;;4.50;;
76786;SDS011;65739;51.482;5.702;2023-07-02T08:10:08;9.48;;;4.75;;
76786;SDS011;65739;51.482;5.702;2023-07-02T08:12:34;12.77;;;5.15;;
76786;SDS011;65739;51.482;5.702;2023-07-02T08:15:00;11.73;;;4.82;;
76786;SDS011;65739;51.482;5.702;2023-07-02T08:17:25;8.18;;;4.38;;
76786;SDS011;65739;51.482;5.702;2023-07-02T08:19:51;9.88;;;4.22;;
76786;SDS011;65739;51.482;5.702;2023-07-02T08:22:16;10.73;;;5.00;;
76786;SDS011;65739;51.482;5.702;2023-07-02T08:24:42;15.55;;;4.90;;
76786;SDS011;65739;51.482;5.702;2023-07-02T08:27:08;10.75;;;5.00;;
76786;SDS011;65739;51.482;5.702;2023-07-02T08:29:35;10.13;;;5.00;;
76786;SDS011;65739;51.482;5.702;2023-07-02T08:32:00;11.80;;;4.80;;
76786;SDS011;65739;51.482;5.702;2023-07-02T08:34:26;10.73;;;4.82;;
76786;SDS011;65739;51.482;5.702;2023-07-02T08:36:51;12.98;;;5.15;;
76786;SDS011;65739;51.482;5.702;2023-07-02T08:39:17;11.57;;;4.80;;
76786;SDS011;65739;51.482;5.702;2023-07-02T08:41:43;10.68;;;4.22;;
76786;SDS011;65739;51.482;5.702;2023-07-02T08:44:10;11.75;;;4.82;;
76786;SDS011;65739;51.482;5.702;2023-07-02T08:46:38;11.52;;;4.50;;
76786;SDS011;65739;51.482;5.702;2023-07-02T08:49:07;9.27;;;4.13;;
76786;SDS011;65739;51.482;5.702;2023-07-02T08:51:33;8.73;;;4.88;;
76786;SDS011;65739;51.482;5.702;2023-07-02T08:54:00;10.60;;;4.10;;
76786;SDS011;65739;51.482;5.702;2023-07-02T08:56:26;9.73;;;4.18;;
76786;SDS011;65739;51.482;5.702;2023-07-02T08:58:52;11.73;;;4.85;;
76786;SDS011;65739;51.482;5.702;2023-07-02T09:01:18;10.60;;;4.28;;
76786;SDS011;65739;51.482;5.702;2023-07-02T09:03:43;9.05;;;4.07;;
76786;SDS011;65739;51.482;5.702;2023-07-02T09:06:09;11.82;;;4.22;;
76786;SDS011;65739;51.482;5.702;2023-07-02T09:08:36;11.85;;;4.47;;
76786;SDS011;65739;51.482;5.702;2023-07-02T09:11:09;13.18;;;4.75;;
76786;SDS011;65739;51.482;5.702;2023-07-02T09:13:48;9.07;;;4.45;;
76786;SDS011;65739;51.482;5.702;2023-07-02T09:19:03;10.05;;;4.82;;
76786;SDS011;65739;51.482;5.702;2023-07-02T09:21:46;10.98;;;4.15;;
76786;SDS011;65739;51.482;5.702;2023-07-02T09:24:14;9.75;;;4.25;;
76786;SDS011;65739;51.482;5.702;2023-07-02T09:26:47;9.93;;;4.65;;
76786;SDS011;65739;51.482;5.702;2023-07-02T09:29:22;14.32;;;4.78;;
76786;SDS011;65739;51.482;5.702;2023-07-02T09:31:53;13.70;;;4.93;;
76786;SDS011;65739;51.482;5.702;2023-07-02T09:34:19;11.40;;;4.90;;
76786;SDS011;65739;51.482;5.702;2023-07-02T09:36:44;13.40;;;4.88;;
76786;SDS011;65739;51.482;5.702;2023-07-02T09:39:14;11.65;;;4.20;;
76786;SDS011;65739;51.482;5.702;2023-07-02T09:41:44;14.93;;;4.97;;
76786;SDS011;65739;51.482;5.702;2023-07-02T09:44:10;9.00;;;4.32;;
76786;SDS011;65739;51.482;5.702;2023-07-02T09:46:45;14.40;;;4.80;;
76786;SDS011;65739;51.482;5.702;2023-07-02T09:49:17;11.38;;;4.47;;
76786;SDS011;65739;51.482;5.702;2023-07-02T09:51:47;9.68;;;4.55;;
76786;SDS011;65739;51.482;5.702;2023-07-02T09:54:13;9.23;;;4.43;;
76786;SDS011;65739;51.482;5.702;2023-07-02T09:56:39;12.30;;;4.63;;
76786;SDS011;65739;51.482;5.702;2023-07-02T09:59:05;8.50;;;4.35;;
76786;SDS011;65739;51.482;5.702;2023-07-02T10:01:30;12.00;;;4.95;;
76786;SDS011;65739;51.482;5.702;2023-07-02T10:03:56;15.30;;;4.55;;
76786;SDS011;65739;51.482;5.702;2023-07-02T10:06:22;11.18;;;4.97;;
76786;SDS011;65739;51.482;5.702;2023-07-02T10:08:54;9.07;;;4.68;;
76786;SDS011;65739;51.482;5.702;2023-07-02T10:11:20;7.85;;;4.07;;
76786;SDS011;65739;51.482;5.702;2023-07-02T10:13:57;16.70;;;5.43;;
76786;SDS011;65739;51.482;5.702;2023-07-02T10:16:24;10.23;;;4.78;;
76786;SDS011;65739;51.482;5.702;2023-07-02T10:18:52;10.13;;;4.70;;
76786;SDS011;65739;51.482;5.702;2023-07-02T10:21:18;10.30;;;4.55;;
76786;SDS011;65739;51.482;5.702;2023-07-02T10:23:44;10.02;;;4.47;;
76786;SDS011;65739;51.482;5.702;2023-07-02T10:26:19;10.20;;;4.70;;
76786;SDS011;65739;51.482;5.702;2023-07-02T10:28:57;12.13;;;5.03;;
76786;SDS011;65739;51.482;5.702;2023-07-02T10:31:23;11.02;;;4.75;;
76786;SDS011;65739;51.482;5.702;2023-07-02T10:33:49;10.75;;;4.93;;
76786;SDS011;65739;51.482;5.702;2023-07-02T10:36:22;11.95;;;4.97;;
76786;SDS011;65739;51.482;5.702;2023-07-02T10:38:50;11.13;;;4.90;;
76786;SDS011;65739;51.482;5.702;2023-07-02T10:41:22;10.55;;;4.88;;
76786;SDS011;65739;51.482;5.702;2023-07-02T10:43:53;11.25;;;4.75;;
76786;SDS011;65739;51.482;5.702;2023-07-02T10:46:19;11.35;;;4.90;;
76786;SDS011;65739;51.482;5.702;2023-07-02T10:48:55;13.23;;;5.32;;
76786;SDS011;65739;51.482;5.702;2023-07-02T10:51:21;12.07;;;5.20;;
76786;SDS011;65739;51.482;5.702;2023-07-02T10:54:08;10.65;;;5.20;;
76786;SDS011;65739;51.482;5.702;2023-07-02T10:56:34;10.93;;;5.47;;
76786;SDS011;65739;51.482;5.702;2023-07-02T10:59:00;9.65;;;5.15;;
76786;SDS011;65739;51.482;5.702;2023-07-02T11:01:30;15.57;;;5.40;;
76786;SDS011;65739;51.482;5.702;2023-07-02T11:04:00;11.10;;;5.07;;
76786;SDS011;65739;51.482;5.702;2023-07-02T11:06:27;11.10;;;5.40;;
76786;SDS011;65739;51.482;5.702;2023-07-02T11:08:54;18.25;;;5.00;;
76786;SDS011;65739;51.482;5.702;2023-07-02T11:11:20;12.80;;;5.18;;
76786;SDS011;65739;51.482;5.702;2023-07-02T11:13:47;14.07;;;5.90;;
76786;SDS011;65739;51.482;5.702;2023-07-02T11:16:20;15.95;;;5.57;;
76786;SDS011;65739;51.482;5.702;2023-07-02T11:18:49;14.95;;;5.95;;
76786;SDS011;65739;51.482;5.702;2023-07-02T11:21:15;14.38;;;5.88;;
76786;SDS011;65739;51.482;5.702;2023-07-02T11:23:41;18.98;;;5.75;;
76786;SDS011;65739;51.482;5.702;2023-07-02T11:26:06;12.50;;;5.28;;
76786;SDS011;65739;51.482;5.702;2023-07-02T11:28:32;16.75;;;6.00;;
76786;SDS011;65739;51.482;5.702;2023-07-02T11:30:59;12.90;;;5.85;;
76786;SDS011;65739;51.482;5.702;2023-07-02T11:33:37;14.70;;;6.03;;
76786;SDS011;65739;51.482;5.702;2023-07-02T11:36:07;14.32;;;5.88;;
76786;SDS011;65739;51.482;5.702;2023-07-02T11:38:44;14.27;;;5.90;;
76786;SDS011;65739;51.482;5.702;2023-07-02T11:41:10;15.23;;;6.30;;
76786;SDS011;65739;51.482;5.702;2023-07-02T11:43:36;16.95;;;5.93;;
76786;SDS011;65739;51.482;5.702;2023-07-02T11:46:01;16.50;;;6.55;;
76786;SDS011;65739;51.482;5.702;2023-07-02T11:48:27;11.63;;;5.70;;
76786;SDS011;65739;51.482;5.702;2023-07-02T11:50:53;16.75;;;6.13;;
76786;SDS011;65739;51.482;5.702;2023-07-02T11:53:18;16.33;;;6.38;;
76786;SDS011;65739;51.482;5.702;2023-07-02T11:55:44;19.45;;;6.53;;
76786;SDS011;65739;51.482;5.702;2023-07-02T11:58:09;14.63;;;6.55;;
76786;SDS011;65739;51.482;5.702;2023-07-02T12:00:35;15.57;;;6.50;;
76786;SDS011;65739;51.482;5.702;2023-07-02T12:03:00;16.17;;;6.97;;
76786;SDS011;65739;51.482;5.702;2023-07-02T12:05:26;16.90;;;6.72;;
76786;SDS011;65739;51.482;5.702;2023-07-02T12:07:51;13.57;;;5.72;;
76786;SDS011;65739;51.482;5.702;2023-07-02T12:10:17;14.35;;;6.57;;
76786;SDS011;65739;51.482;5.702;2023-07-02T12:12:43;17.38;;;6.15;;
76786;SDS011;65739;51.482;5.702;2023-07-02T12:15:08;16.65;;;6.70;;
76786;SDS011;65739;51.482;5.702;2023-07-02T12:17:34;17.35;;;6.68;;
76786;SDS011;65739;51.482;5.702;2023-07-02T12:20:00;17.25;;;6.43;;
76786;SDS011;65739;51.482;5.702;2023-07-02T12:22:25;20.60;;;6.65;;
76786;SDS011;65739;51.482;5.702;2023-07-02T12:24:51;14.27;;;5.95;;
76786;SDS011;65739;51.482;5.702;2023-07-02T12:27:18;15.02;;;6.00;;
76786;SDS011;65739;51.482;5.702;2023-07-02T12:29:44;16.27;;;6.07;;
76786;SDS011;65739;51.482;5.702;2023-07-02T12:32:09;12.40;;;6.03;;
76786;SDS011;65739;51.482;5.702;2023-07-02T12:34:35;16.02;;;5.88;;
76786;SDS011;65739;51.482;5.702;2023-07-02T12:37:00;16.20;;;6.28;;
76786;SDS011;65739;51.482;5.702;2023-07-02T12:39:26;16.40;;;6.82;;
76786;SDS011;65739;51.482;5.702;2023-07-02T12:41:52;18.27;;;6.28;;
76786;SDS011;65739;51.482;5.702;2023-07-02T12:44:17;12.77;;;6.05;;
76786;SDS011;65739;51.482;5.702;2023-07-02T12:46:42;16.95;;;6.10;;
76786;SDS011;65739;51.482;5.702;2023-07-02T12:49:08;20.30;;;6.82;;
76786;SDS011;65739;51.482;5.702;2023-07-02T12:51:33;11.02;;;5.45;;
76786;SDS011;65739;51.482;5.702;2023-07-02T12:53:59;13.35;;;5.65;;
76786;SDS011;65739;51.482;5.702;2023-07-02T12:56:24;15.05;;;5.50;;
76786;SDS011;65739;51.482;5.702;2023-07-02T12:58:50;13.18;;;5.22;;
76786;SDS011;65739;51.482;5.702;2023-07-02T13:01:16;13.82;;;5.85;;
76786;SDS011;65739;51.482;5.702;2023-07-02T13:03:45;11.23;;;4.88;;
76786;SDS011;65739;51.482;5.702;2023-07-02T13:06:12;11.48;;;5.28;;
76786;SDS011;65739;51.482;5.702;2023-07-02T13:08:38;7.07;;;3.78;;
76786;SDS011;65739;51.482;5.702;2023-07-02T13:11:03;9.82;;;4.95;;
76786;SDS011;65739;51.482;5.702;2023-07-02T13:13:29;13.98;;;4.50;;
76786;SDS011;65739;51.482;5.702;2023-07-02T13:15:54;12.48;;;4.50;;
76786;SDS011;65739;51.482;5.702;2023-07-02T13:18:20;10.48;;;4.07;;
76786;SDS011;65739;51.482;5.702;2023-07-02T13:20:45;10.10;;;4.45;;
76786;SDS011;65739;51.482;5.702;2023-07-02T13:23:11;11.02;;;4.10;;
76786;SDS011;65739;51.482;5.702;2023-07-02T13:25:37;10.55;;;3.90;;
76786;SDS011;65739;51.482;5.702;2023-07-02T13:28:02;11.05;;;4.20;;
76786;SDS011;65739;51.482;5.702;2023-07-02T13:30:28;11.85;;;4.18;;
76786;SDS011;65739;51.482;5.702;2023-07-02T13:32:55;9.95;;;4.28;;
76786;SDS011;65739;51.482;5.702;2023-07-02T13:35:21;9.77;;;3.72;;
76786;SDS011;65739;51.482;5.702;2023-07-02T13:37:47;8.52;;;3.67;;
76786;SDS011;65739;51.482;5.702;2023-07-02T13:40:13;10.90;;;4.00;;
76786;SDS011;65739;51.482;5.702;2023-07-02T13:42:40;8.95;;;3.58;;
76786;SDS011;65739;51.482;5.702;2023-07-02T13:45:07;10.25;;;4.00;;
76786;SDS011;65739;51.482;5.702;2023-07-02T13:47:34;9.45;;;4.57;;
76786;SDS011;65739;51.482;5.702;2023-07-02T13:50:00;12.65;;;4.15;;
76786;SDS011;65739;51.482;5.702;2023-07-02T13:52:26;9.52;;;5.03;;
76786;SDS011;65739;51.482;5.702;2023-07-02T13:54:51;8.40;;;4.22;;
76786;SDS011;65739;51.482;5.702;2023-07-02T13:57:17;46.72;;;6.00;;
76786;SDS011;65739;51.482;5.702;2023-07-02T13:59:42;12.35;;;4.05;;
76786;SDS011;65739;51.482;5.702;2023-07-02T14:02:08;15.82;;;4.72;;
76786;SDS011;65739;51.482;5.702;2023-07-02T14:04:34;13.40;;;4.95;;
76786;SDS011;65739;51.482;5.702;2023-07-02T14:06:59;10.63;;;4.57;;
76786;SDS011;65739;51.482;5.702;2023-07-02T14:09:25;14.07;;;5.03;;
76786;SDS011;65739;51.482;5.702;2023-07-02T14:11:50;7.68;;;4.10;;
76786;SDS011;65739;51.482;5.702;2023-07-02T14:14:16;10.30;;;4.38;;
76786;SDS011;65739;51.482;5.702;2023-07-02T14:16:41;36.97;;;6.88;;
76786;SDS011;65739;51.482;5.702;2023-07-02T14:19:07;8.40;;;4.10;;
76786;SDS011;65739;51.482;5.702;2023-07-02T14:21:32;12.43;;;4.65;;
76786;SDS011;65739;51.482;5.702;2023-07-02T14:23:58;9.85;;;4.57;;
76786;SDS011;65739;51.482;5.702;2023-07-02T14:26:24;10.93;;;4.65;;
76786;SDS011;65739;51.482;5.702;2023-07-02T14:28:50;10.85;;;4.68;;
76786;SDS011;65739;51.482;5.702;2023-07-02T14:31:15;10.35;;;4.68;;
76786;SDS011;65739;51.482;5.702;2023-07-02T14:33:41;10.10;;;4.47;;